Terminal Aerodrome Forecast
Issued by NWS Rapid City, SD

Home | Current Version | Previous Version | Text Only | Print | Product List | Glossary On
Versions: 1 2 3 4 5 6 7 8 9 10 11 12 13 14 15 16 17
000
FTUS43 KUNR 251129
TAFRAP
TAF
KRAP 251129Z 2512/2612 34015KT P6SM BKN120
     FM251800 33015KT P6SM SCT070
     FM260200 31006KT P6SM FEW120=

USA.gov is the U.S. government's official web portal to all federal, state and local government web resources and services.